Time;durP1;ratioP1;P1;durP2;ratioP2;P2;SDS_P1;SDS_P2;PMS_P1;PMS_P2;Temp;Humidity;BMP_temperature;BMP_pressure;BME280_temperature;BME280_humidity;BME280_pressure;Samples;Min_cycle;Max_cycle;Signal;HPM_P1;HPM_P2
2021/03/09 00:00:16;;;;;;;;;22.00;19.75;;;;;;;;4966452;28;111821;-71
2021/03/09 00:02:43;;;;;;;;;20.25;20.25;;;;;;;;4964761;28;113578;-71
2021/03/09 00:05:10;;;;;;;;;24.75;17.75;;;;;;;;4959136;28;114194;-71
2021/03/09 00:07:37;;;;;;;;;23.75;22.00;;;;;;;;4966410;28;112159;-71
2021/03/09 00:10:03;;;;;;;;;20.50;16.75;;;;;;;;4953125;28;112814;-71
2021/03/09 00:12:29;;;;;;;;;25.00;22.00;;;;;;;;4968778;28;114967;-72
2021/03/09 00:14:55;;;;;;;;;20.00;19.00;;;;;;;;4965298;28;113528;-71
2021/03/09 00:17:21;;;;;;;;;20.75;19.75;;;;;;;;4963422;28;114838;-72
2021/03/09 00:19:47;;;;;;;;;21.25;19.50;;;;;;;;4966833;28;112194;-72
2021/03/09 00:22:13;;;;;;;;;21.67;21.00;;;;;;;;4956940;28;112832;-72
2021/03/09 00:24:40;;;;;;;;;19.50;17.00;;;;;;;;4961603;28;114700;-71
2021/03/09 00:27:09;;;;;;;;;19.25;19.25;;;;;;;;4969160;28;111917;-71
2021/03/09 00:29:35;;;;;;;;;21.00;19.50;;;;;;;;4967160;28;114162;-72
2021/03/09 00:32:01;;;;;;;;;21.25;17.75;;;;;;;;4959279;28;113010;-72
2021/03/09 00:34:27;;;;;;;;;18.50;17.00;;;;;;;;4972845;28;112326;-72
2021/03/09 00:36:53;;;;;;;;;18.00;17.50;;;;;;;;4967787;28;113902;-72
2021/03/09 00:39:19;;;;;;;;;20.00;17.00;;;;;;;;4962496;28;112563;-72
2021/03/09 00:41:45;;;;;;;;;20.00;19.25;;;;;;;;4966973;28;113543;-72
2021/03/09 00:44:11;;;;;;;;;21.25;20.00;;;;;;;;4959811;28;113173;-72
2021/03/09 00:46:37;;;;;;;;;20.75;19.50;;;;;;;;4966904;28;112022;-72
2021/03/09 00:49:03;;;;;;;;;18.75;18.75;;;;;;;;4969519;28;113499;-72
2021/03/09 00:51:29;;;;;;;;;16.25;14.00;;;;;;;;4967097;28;114047;-72
2021/03/09 00:53:55;;;;;;;;;20.00;18.00;;;;;;;;4968199;28;111863;-72
2021/03/09 00:56:21;;;;;;;;;18.75;17.00;;;;;;;;4971220;28;114153;-72
2021/03/09 00:58:48;;;;;;;;;14.50;13.50;;;;;;;;4967655;28;111983;-72
2021/03/09 01:01:14;;;;;;;;;23.33;15.00;;;;;;;;4969202;28;113698;-72
2021/03/09 01:03:40;;;;;;;;;16.25;16.25;;;;;;;;4965700;28;113983;-72
2021/03/09 01:06:06;;;;;;;;;21.67;17.00;;;;;;;;4969155;28;111913;-73
2021/03/09 01:08:32;;;;;;;;;19.67;18.00;;;;;;;;4967513;28;114100;-72
2021/03/09 01:10:58;;;;;;;;;15.00;14.00;;;;;;;;4967850;28;114123;-73
2021/03/09 01:13:24;;;;;;;;;15.00;15.00;;;;;;;;4968093;28;112103;-73
2021/03/09 01:15:51;;;;;;;;;14.75;14.00;;;;;;;;4966895;28;113484;-72
2021/03/09 01:18:17;;;;;;;;;19.75;17.00;;;;;;;;4972162;28;114304;-71
2021/03/09 01:20:43;;;;;;;;;17.00;16.50;;;;;;;;4966573;28;113449;-73
2021/03/09 01:23:09;;;;;;;;;15.50;14.00;;;;;;;;4968606;28;113984;-72
2021/03/09 01:25:35;;;;;;;;;14.25;14.00;;;;;;;;4966422;28;111902;-72
2021/03/09 01:28:01;;;;;;;;;14.67;13.33;;;;;;;;4967899;28;113699;-72
2021/03/09 01:30:27;;;;;;;;;19.75;15.25;;;;;;;;4967127;28;114006;-72
2021/03/09 01:32:54;;;;;;;;;14.00;13.25;;;;;;;;4967635;28;112016;-72
2021/03/09 01:35:20;;;;;;;;;19.00;14.50;;;;;;;;4968111;28;113792;-73
2021/03/09 01:37:46;;;;;;;;;18.50;13.25;;;;;;;;4965658;28;114215;-72
2021/03/09 01:40:12;;;;;;;;;15.50;11.75;;;;;;;;4973442;28;112068;-72
2021/03/09 01:42:38;;;;;;;;;17.33;16.00;;;;;;;;4961791;28;114292;-72
2021/03/09 01:45:06;;;;;;;;;14.00;14.00;;;;;;;;4968327;28;112034;-71
2021/03/09 01:47:32;;;;;;;;;15.25;10.00;;;;;;;;4966197;28;113638;-72
2021/03/09 01:49:59;;;;;;;;;14.25;12.50;;;;;;;;4967129;28;114065;-72
2021/03/09 01:52:26;;;;;;;;;14.00;11.75;;;;;;;;4967090;28;112016;-72
2021/03/09 01:54:52;;;;;;;;;14.25;11.75;;;;;;;;4966460;28;114153;-72
2021/03/09 01:57:18;;;;;;;;;15.00;13.00;;;;;;;;4967632;28;114031;-72
2021/03/09 01:59:44;;;;;;;;;13.25;11.00;;;;;;;;4969472;28;112084;-71
2021/03/09 02:02:10;;;;;;;;;8.00;8.00;;;;;;;;4968005;28;113807;-71
2021/03/09 02:04:36;;;;;;;;;9.75;8.00;;;;;;;;4965029;28;112173;-71
2021/03/09 02:07:03;;;;;;;;;10.75;9.50;;;;;;;;4964267;28;112422;-72
2021/03/09 02:09:29;;;;;;;;;9.00;8.00;;;;;;;;4966009;28;114125;-71
2021/03/09 02:11:59;;;;;;;;;10.50;8.00;;;;;;;;4966977;28;112073;-72
2021/03/09 02:14:28;;;;;;;;;6.00;6.00;;;;;;;;4962184;28;112858;-73
2021/03/09 02:16:59;;;;;;;;;8.00;8.00;;;;;;;;4966136;28;114135;-72
2021/03/09 02:19:48;;;;;;;;;7.75;7.75;;;;;;;;4966996;28;111854;-72
2021/03/09 02:22:24;;;;;;;;;8.50;8.00;;;;;;;;4965942;28;113661;-72
2021/03/09 02:25:07;;;;;;;;;10.00;8.75;;;;;;;;4967256;28;111959;-72
2021/03/09 02:27:39;;;;;;;;;8.00;8.00;;;;;;;;4968103;28;113713;-72
2021/03/09 02:30:11;;;;;;;;;9.00;8.75;;;;;;;;4964093;28;114236;-72
2021/03/09 02:32:39;;;;;;;;;9.50;8.00;;;;;;;;4961440;28;111953;-70
2021/03/09 02:35:07;;;;;;;;;9.00;8.00;;;;;;;;4968166;28;114310;-72
2021/03/09 02:37:34;;;;;;;;;9.00;8.00;;;;;;;;4953616;28;113096;-72
2021/03/09 02:40:00;;;;;;;;;8.00;8.00;;;;;;;;4967417;28;111840;-72
2021/03/09 02:42:27;;;;;;;;;7.50;7.00;;;;;;;;4966816;28;113142;-71
2021/03/09 02:44:55;;;;;;;;;7.00;6.50;;;;;;;;4969793;28;114245;-71
2021/03/09 02:47:22;;;;;;;;;6.50;6.00;;;;;;;;4965903;28;114060;-71
2021/03/09 02:49:49;;;;;;;;;8.25;6.75;;;;;;;;4958341;28;113220;-72
2021/03/09 02:52:17;;;;;;;;;7.75;7.25;;;;;;;;4967113;28;111879;-72
2021/03/09 02:54:45;;;;;;;;;7.50;7.50;;;;;;;;4965544;28;113249;-71
2021/03/09 02:57:12;;;;;;;;;6.75;6.75;;;;;;;;4967026;28;114462;-71
2021/03/09 02:59:38;;;;;;;;;6.75;6.75;;;;;;;;4961561;28;112455;-72
2021/03/09 03:02:05;;;;;;;;;6.50;6.50;;;;;;;;4967480;28;113659;-71
2021/03/09 03:04:32;;;;;;;;;6.25;6.00;;;;;;;;4964515;28;114288;-71
2021/03/09 03:06:59;;;;;;;;;7.00;7.00;;;;;;;;4970877;28;111926;-71
2021/03/09 03:09:25;;;;;;;;;6.75;6.00;;;;;;;;4960591;28;114239;-71
2021/03/09 03:11:51;;;;;;;;;5.00;5.00;;;;;;;;4966159;28;111827;-71
2021/03/09 03:14:18;;;;;;;;;6.25;4.25;;;;;;;;4967050;28;113635;-72
2021/03/09 03:16:45;;;;;;;;;8.00;5.00;;;;;;;;4963964;28;114088;-72
2021/03/09 03:19:13;;;;;;;;;7.25;6.75;;;;;;;;4967435;28;112994;-71
2021/03/09 03:21:40;;;;;;;;;6.50;4.50;;;;;;;;4964802;28;114235;-72
2021/03/09 03:24:07;;;;;;;;;6.00;4.00;;;;;;;;4958939;28;114439;-72
2021/03/09 03:26:36;;;;;;;;;4.00;3.00;;;;;;;;4968016;28;112202;-72
2021/03/09 03:29:04;;;;;;;;;7.75;6.00;;;;;;;;4967512;28;113662;-72
2021/03/09 03:31:30;;;;;;;;;4.00;4.00;;;;;;;;4967192;28;112424;-71
2021/03/09 03:33:57;;;;;;;;;4.00;4.00;;;;;;;;4964937;28;113587;-72
2021/03/09 03:36:23;;;;;;;;;3.75;3.75;;;;;;;;4961209;28;113291;-71
2021/03/09 03:38:50;;;;;;;;;5.50;3.75;;;;;;;;4966398;28;112115;-71
2021/03/09 03:41:16;;;;;;;;;3.00;3.00;;;;;;;;4964654;28;113890;-71
2021/03/09 03:43:42;;;;;;;;;3.25;3.00;;;;;;;;4960360;28;112941;-72
2021/03/09 03:46:08;;;;;;;;;3.75;3.75;;;;;;;;4964309;28;112055;-72
2021/03/09 03:48:35;;;;;;;;;3.00;1.25;;;;;;;;4957822;28;112516;-71
2021/03/09 03:51:12;;;;;;;;;2.00;2.00;;;;;;;;4967355;28;113800;-72
2021/03/09 03:53:42;;;;;;;;;3.00;2.00;;;;;;;;4957040;28;112465;-71
2021/03/09 03:56:20;;;;;;;;;5.50;1.25;;;;;;;;4959870;28;114246;-72
2021/03/09 03:58:48;;;;;;;;;1.00;1.00;;;;;;;;4963558;28;111829;-72
2021/03/09 04:01:15;;;;;;;;;1.25;1.25;;;;;;;;4970067;28;113147;-72
2021/03/09 04:03:42;;;;;;;;;4.00;2.00;;;;;;;;4966210;28;114184;-72
2021/03/09 04:06:08;;;;;;;;;1.00;1.00;;;;;;;;4970873;28;112441;-72
2021/03/09 04:08:36;;;;;;;;;1.00;1.00;;;;;;;;4967257;28;113611;-72
2021/03/09 04:11:03;;;;;;;;;1.00;1.00;;;;;;;;4967014;28;113105;-72
2021/03/09 04:13:31;;;;;;;;;1.00;0.50;;;;;;;;4968054;28;113648;-73
2021/03/09 04:15:57;;;;;;;;;1.00;1.00;;;;;;;;4968441;28;114014;-72
2021/03/09 04:18:25;;;;;;;;;1.00;1.00;;;;;;;;4968679;28;112876;-72
2021/03/09 04:20:52;;;;;;;;;1.00;1.00;;;;;;;;4968730;28;114764;-72
2021/03/09 04:23:19;;;;;;;;;1.50;1.50;;;;;;;;4968711;28;113827;-72
2021/03/09 04:25:46;;;;;;;;;0.25;0.00;;;;;;;;4960646;28;112408;-71
2021/03/09 04:28:13;;;;;;;;;1.00;1.00;;;;;;;;4970279;28;113778;-71
2021/03/09 04:30:41;;;;;;;;;1.00;1.00;;;;;;;;4959629;28;113474;-72
2021/03/09 04:33:07;;;;;;;;;1.00;1.00;;;;;;;;4967205;28;113527;-71
2021/03/09 04:35:33;;;;;;;;;0.75;0.00;;;;;;;;4969807;28;113996;-72
2021/03/09 04:38:00;;;;;;;;;1.00;0.00;;;;;;;;4964013;28;112231;-71
2021/03/09 04:40:28;;;;;;;;;0.75;0.75;;;;;;;;4969023;28;114213;-71
2021/03/09 04:42:54;;;;;;;;;0.25;0.25;;;;;;;;4967583;28;114120;-71
2021/03/09 04:45:21;;;;;;;;;0.00;0.00;;;;;;;;4967654;28;111957;-71
2021/03/09 04:47:48;;;;;;;;;1.00;1.00;;;;;;;;4968611;28;112242;-71
2021/03/09 04:50:15;;;;;;;;;1.00;1.00;;;;;;;;4966690;28;114271;-71
2021/03/09 04:52:42;;;;;;;;;0.25;0.00;;;;;;;;4969438;28;112443;-72
2021/03/09 04:55:09;;;;;;;;;0.00;0.00;;;;;;;;4969898;28;113664;-71
2021/03/09 04:57:37;;;;;;;;;0.00;0.00;;;;;;;;4963043;28;112020;-73
2021/03/09 05:00:04;;;;;;;;;0.25;0.25;;;;;;;;4969815;28;113608;-72
2021/03/09 05:02:30;;;;;;;;;1.00;1.00;;;;;;;;4966450;28;114487;-73
2021/03/09 05:04:56;;;;;;;;;0.00;0.00;;;;;;;;4968510;28;112214;-72
2021/03/09 05:07:22;;;;;;;;;0.00;0.00;;;;;;;;4968385;28;113510;-73
2021/03/09 05:09:49;;;;;;;;;0.00;0.00;;;;;;;;4967267;28;113975;-73
2021/03/09 05:12:15;;;;;;;;;1.00;1.00;;;;;;;;4968765;28;112065;-73
2021/03/09 05:14:41;;;;;;;;;0.50;0.50;;;;;;;;4966376;28;114035;-72
2021/03/09 05:17:07;;;;;;;;;0.50;0.50;;;;;;;;4971874;28;115348;-72
2021/03/09 05:19:34;;;;;;;;;0.25;0.25;;;;;;;;4966996;28;113409;-72
2021/03/09 05:22:01;;;;;;;;;3.00;1.00;;;;;;;;4968104;28;114274;-73
2021/03/09 05:24:27;;;;;;;;;0.00;0.00;;;;;;;;4967034;28;111828;-72
2021/03/09 05:26:53;;;;;;;;;0.00;0.00;;;;;;;;4968612;28;113439;-72
2021/03/09 05:29:19;;;;;;;;;0.75;0.75;;;;;;;;4967476;28;114031;-72
2021/03/09 05:31:45;;;;;;;;;0.00;0.00;;;;;;;;4967040;28;111800;-72
2021/03/09 05:34:11;;;;;;;;;0.00;0.00;;;;;;;;4968486;28;113667;-71
2021/03/09 05:36:37;;;;;;;;;1.50;0.00;;;;;;;;4965836;28;114016;-72
2021/03/09 05:39:05;;;;;;;;;0.00;0.00;;;;;;;;4965854;28;112785;-72
2021/03/09 05:41:31;;;;;;;;;1.00;1.00;;;;;;;;4968193;28;114555;-71
2021/03/09 05:43:57;;;;;;;;;1.75;0.00;;;;;;;;4967050;28;111949;-71
2021/03/09 05:46:23;;;;;;;;;0.00;0.00;;;;;;;;4968223;28;113597;-71
2021/03/09 05:48:49;;;;;;;;;0.25;0.25;;;;;;;;4967385;28;114395;-71
2021/03/09 05:51:15;;;;;;;;;0.00;0.00;;;;;;;;4966521;28;111993;-71
2021/03/09 05:53:41;;;;;;;;;0.00;0.00;;;;;;;;4961737;28;112532;-71
2021/03/09 05:56:08;;;;;;;;;0.00;0.00;;;;;;;;4964437;28;113940;-70
2021/03/09 05:58:34;;;;;;;;;0.00;0.00;;;;;;;;4962029;28;111724;-71
2021/03/09 06:01:00;;;;;;;;;1.00;1.00;;;;;;;;4971300;28;113847;-70
2021/03/09 06:03:26;;;;;;;;;1.00;1.00;;;;;;;;4966136;28;111859;-70
2021/03/09 06:05:52;;;;;;;;;1.00;1.00;;;;;;;;4968186;28;113574;-70
2021/03/09 06:08:18;;;;;;;;;1.00;1.00;;;;;;;;4966754;28;114471;-71
2021/03/09 06:10:45;;;;;;;;;1.00;1.00;;;;;;;;4966714;28;111896;-71
2021/03/09 06:13:32;;;;;;;;;1.00;1.00;;;;;;;;4967559;28;112588;-72
2021/03/09 06:15:58;;;;;;;;;1.50;1.50;;;;;;;;4967089;28;113779;-72
2021/03/09 06:18:24;;;;;;;;;1.00;1.00;;;;;;;;4966582;28;112071;-71
2021/03/09 06:20:50;;;;;;;;;2.00;2.00;;;;;;;;4969395;28;113463;-72
2021/03/09 06:23:26;;;;;;;;;1.00;1.00;;;;;;;;4966787;28;111891;-72
2021/03/09 06:25:52;;;;;;;;;1.00;1.00;;;;;;;;4967026;28;113696;-72
2021/03/09 06:28:29;;;;;;;;;1.00;1.00;;;;;;;;4966953;28;114334;-72
2021/03/09 06:30:55;;;;;;;;;1.75;1.75;;;;;;;;4967211;28;111890;-72
2021/03/09 06:33:26;;;;;;;;;1.00;1.00;;;;;;;;4966060;28;113427;-74
2021/03/09 06:35:52;;;;;;;;;2.00;2.00;;;;;;;;4966735;28;114280;-71
2021/03/09 06:38:20;;;;;;;;;1.25;1.25;;;;;;;;4967001;28;112455;-71
2021/03/09 06:41:04;;;;;;;;;3.75;1.00;;;;;;;;4958470;28;112431;-71
2021/03/09 06:43:31;;;;;;;;;2.50;1.00;;;;;;;;4961691;28;113124;-71
2021/03/09 06:46:09;;;;;;;;;2.50;2.00;;;;;;;;4952088;28;115132;-70
2021/03/09 06:48:37;;;;;;;;;2.75;2.75;;;;;;;;4959729;28;113954;-70
2021/03/09 06:51:03;;;;;;;;;2.25;2.25;;;;;;;;4959601;28;112693;-71
2021/03/09 06:53:29;;;;;;;;;3.00;3.00;;;;;;;;4966798;28;113515;-70
2021/03/09 06:55:55;;;;;;;;;2.25;2.25;;;;;;;;4963081;28;114038;-70
2021/03/09 06:58:27;;;;;;;;;2.50;2.50;;;;;;;;4965196;28;112114;-70
2021/03/09 07:00:54;;;;;;;;;3.00;3.00;;;;;;;;4963822;28;113810;-76
2021/03/09 07:03:31;;;;;;;;;2.75;2.75;;;;;;;;4964839;28;113631;-72
2021/03/09 07:05:59;;;;;;;;;2.50;2.50;;;;;;;;4967320;28;111957;-71
2021/03/09 07:08:25;;;;;;;;;4.50;3.25;;;;;;;;4963281;28;114637;-72
2021/03/09 07:10:50;;;;;;;;;4.00;3.00;;;;;;;;4965440;28;112213;-73
2021/03/09 07:13:17;;;;;;;;;7.00;4.50;;;;;;;;4965437;28;114334;-75
2021/03/09 07:15:43;;;;;;;;;5.00;5.00;;;;;;;;4965793;28;114294;-72
2021/03/09 07:18:11;;;;;;;;;4.50;4.50;;;;;;;;4960627;28;112807;-71
2021/03/09 07:20:37;;;;;;;;;4.00;4.00;;;;;;;;4967286;28;113698;-70
2021/03/09 07:23:03;;;;;;;;;5.50;5.50;;;;;;;;4961648;28;114053;-70
2021/03/09 07:25:30;;;;;;;;;6.25;6.00;;;;;;;;4966084;28;111996;-70
2021/03/09 07:27:58;;;;;;;;;6.50;6.50;;;;;;;;4958690;28;112928;-71
2021/03/09 07:30:24;;;;;;;;;4.00;4.00;;;;;;;;4965642;28;111925;-72
2021/03/09 07:32:51;;;;;;;;;5.50;5.50;;;;;;;;4966324;28;113513;-71
2021/03/09 07:35:20;;;;;;;;;6.75;6.75;;;;;;;;4967443;28;114395;-71
2021/03/09 07:37:49;;;;;;;;;9.00;9.00;;;;;;;;4968965;28;112336;-72
2021/03/09 07:40:18;;;;;;;;;7.00;6.00;;;;;;;;4967080;28;113717;-70
2021/03/09 07:42:44;;;;;;;;;11.50;8.00;;;;;;;;4968076;28;114751;-72
2021/03/09 07:45:11;;;;;;;;;8.00;8.00;;;;;;;;4966676;28;113072;-70
2021/03/09 07:47:41;;;;;;;;;6.75;6.25;;;;;;;;4969961;28;112781;-71
2021/03/09 07:50:08;;;;;;;;;7.75;7.00;;;;;;;;4969271;28;114458;-68
2021/03/09 07:52:35;;;;;;;;;9.50;8.75;;;;;;;;4969637;28;114193;-69
2021/03/09 07:55:17;;;;;;;;;5.50;5.50;;;;;;;;4965244;28;115178;-69
2021/03/09 07:57:43;;;;;;;;;11.50;7.75;;;;;;;;4965364;28;112230;-70
2021/03/09 08:00:11;;;;;;;;;10.75;8.00;;;;;;;;4967731;28;113544;-70
2021/03/09 08:02:49;;;;;;;;;8.00;8.00;;;;;;;;4967048;28;114585;-71
2021/03/09 08:05:16;;;;;;;;;9.00;8.25;;;;;;;;4970121;28;111853;-71
2021/03/09 08:07:46;;;;;;;;;11.50;9.00;;;;;;;;4968289;28;113895;-71
2021/03/09 08:10:27;;;;;;;;;11.75;9.25;;;;;;;;4969084;28;114261;-71
2021/03/09 08:12:53;;;;;;;;;8.25;7.75;;;;;;;;4973063;28;112095;-70
2021/03/09 08:15:19;;;;;;;;;12.00;10.00;;;;;;;;4967405;28;113977;-70
2021/03/09 08:17:45;;;;;;;;;11.50;9.25;;;;;;;;4969233;28;112041;-71
2021/03/09 08:20:39;;;;;;;;;14.00;11.00;;;;;;;;4969865;28;113274;-71
2021/03/09 08:23:06;;;;;;;;;12.50;11.25;;;;;;;;4962952;28;114191;-70
2021/03/09 08:25:37;;;;;;;;;11.00;10.00;;;;;;;;4963799;28;112564;-70
2021/03/09 08:28:18;;;;;;;;;12.00;11.00;;;;;;;;4958442;28;112466;-70
2021/03/09 08:30:45;;;;;;;;;10.00;10.00;;;;;;;;4964417;28;114136;-71
2021/03/09 08:33:32;;;;;;;;;13.25;11.50;;;;;;;;4973325;28;112481;-71
2021/03/09 08:35:58;;;;;;;;;12.25;11.00;;;;;;;;4965761;28;113042;-71
2021/03/09 08:38:26;;;;;;;;;11.25;11.25;;;;;;;;4964658;28;111941;-71
2021/03/09 08:40:58;;;;;;;;;9.75;9.75;;;;;;;;4966417;28;113731;-73
2021/03/09 08:43:25;;;;;;;;;14.75;12.00;;;;;;;;4963827;28;114227;-72
2021/03/09 08:45:56;;;;;;;;;10.00;10.00;;;;;;;;4965897;28;112512;-71
2021/03/09 08:48:36;;;;;;;;;12.00;12.00;;;;;;;;4964287;28;113638;-73
2021/03/09 08:51:03;;;;;;;;;12.00;11.00;;;;;;;;4962274;28;116240;-72
2021/03/09 08:53:30;;;;;;;;;10.00;10.00;;;;;;;;4964648;28;112243;-71
2021/03/09 08:55:57;;;;;;;;;10.50;10.50;;;;;;;;4972617;28;113470;-72
2021/03/09 08:58:23;;;;;;;;;13.00;11.25;;;;;;;;4967325;28;112054;-72
2021/03/09 09:00:49;;;;;;;;;15.75;13.25;;;;;;;;4969211;28;113761;-71
2021/03/09 09:03:29;;;;;;;;;18.25;16.50;;;;;;;;4968497;28;114154;-70
2021/03/09 09:05:55;;;;;;;;;14.25;14.00;;;;;;;;4969149;28;113828;-71
2021/03/09 09:08:21;;;;;;;;;14.00;13.00;;;;;;;;4968073;28;114000;-72
2021/03/09 09:10:48;;;;;;;;;13.25;13.00;;;;;;;;4967541;28;114156;-73
2021/03/09 09:13:14;;;;;;;;;12.00;11.00;;;;;;;;4968121;28;112039;-72
2021/03/09 09:15:40;;;;;;;;;13.33;13.00;;;;;;;;4966684;28;113394;-73
2021/03/09 09:18:07;;;;;;;;;18.00;15.33;;;;;;;;4963030;28;113153;-73
2021/03/09 09:20:34;;;;;;;;;18.33;16.33;;;;;;;;4965854;28;113448;-69
2021/03/09 09:23:10;;;;;;;;;14.00;13.67;;;;;;;;4960704;28;114142;-69
2021/03/09 09:25:36;;;;;;;;;15.00;14.33;;;;;;;;4963672;28;111822;-67
2021/03/09 09:28:03;;;;;;;;;16.00;16.00;;;;;;;;4959658;28;112987;-69
2021/03/09 09:30:37;;;;;;;;;14.00;14.00;;;;;;;;4965396;28;114133;-68
2021/03/09 09:33:03;;;;;;;;;14.67;14.67;;;;;;;;4962564;28;112048;-68
2021/03/09 09:35:30;;;;;;;;;16.67;15.33;;;;;;;;4961077;28;113551;-69
2021/03/09 09:37:57;;;;;;;;;18.00;15.33;;;;;;;;4965760;28;114737;-67
2021/03/09 09:40:25;;;;;;;;;14.67;13.67;;;;;;;;4966910;28;112197;-65
2021/03/09 09:42:59;;;;;;;;;20.00;15.00;;;;;;;;4962600;28;114134;-66
2021/03/09 09:45:26;;;;;;;;;12.00;12.00;;;;;;;;4958432;28;114770;-65
2021/03/09 09:47:52;;;;;;;;;14.33;13.67;;;;;;;;4963177;28;113527;-66
2021/03/09 09:50:19;;;;;;;;;15.00;14.33;;;;;;;;4961467;28;114113;-67
2021/03/09 09:52:52;;;;;;;;;14.33;13.67;;;;;;;;4964231;28;113304;-67
2021/03/09 09:55:19;;;;;;;;;13.67;13.33;;;;;;;;4961828;28;113679;-65
2021/03/09 09:57:49;;;;;;;;;14.33;14.33;;;;;;;;4960452;28;114392;-67
2021/03/09 10:00:16;;;;;;;;;13.33;11.67;;;;;;;;4956996;28;112773;-66
2021/03/09 10:02:42;;;;;;;;;14.00;14.00;;;;;;;;4962306;28;113958;-66
2021/03/09 10:05:23;;;;;;;;;12.00;10.33;;;;;;;;4961451;28;113443;-65
2021/03/09 10:07:49;;;;;;;;;12.00;11.00;;;;;;;;4962412;28;114001;-67
2021/03/09 10:10:15;;;;;;;;;12.67;12.00;;;;;;;;4963701;28;114549;-68
2021/03/09 10:12:41;;;;;;;;;11.00;11.00;;;;;;;;4964185;28;113519;-69
2021/03/09 10:15:08;;;;;;;;;13.33;12.00;;;;;;;;4962404;28;113639;-67
2021/03/09 10:17:35;;;;;;;;;13.33;12.67;;;;;;;;4963256;28;114065;-69
2021/03/09 10:20:02;;;;;;;;;12.00;10.67;;;;;;;;4966722;28;113250;-72
2021/03/09 10:22:28;;;;;;;;;12.33;12.33;;;;;;;;4965085;28;113513;-71
2021/03/09 10:25:07;;;;;;;;;11.33;10.67;;;;;;;;4964085;28;113316;-71
2021/03/09 10:27:33;;;;;;;;;14.00;14.00;;;;;;;;4960096;28;114037;-71
2021/03/09 10:29:59;;;;;;;;;14.00;12.33;;;;;;;;4957929;28;114361;-71
2021/03/09 10:32:25;;;;;;;;;11.67;11.67;;;;;;;;4960582;28;112717;-71
2021/03/09 10:34:54;;;;;;;;;12.00;12.00;;;;;;;;4961166;28;114149;-71
2021/03/09 10:37:32;;;;;;;;;13.33;13.33;;;;;;;;4959977;28;113922;-70
2021/03/09 10:39:59;;;;;;;;;17.00;14.67;;;;;;;;4964727;28;111931;-73
2021/03/09 10:42:25;;;;;;;;;13.00;12.33;;;;;;;;4968587;28;113361;-71
2021/03/09 10:44:51;;;;;;;;;13.00;12.67;;;;;;;;4968995;28;114191;-71
2021/03/09 10:47:17;;;;;;;;;11.00;11.00;;;;;;;;4967084;28;113476;-72
2021/03/09 10:49:43;;;;;;;;;16.00;16.00;;;;;;;;4965806;28;113994;-71
2021/03/09 10:52:09;;;;;;;;;13.67;13.00;;;;;;;;4966386;28;112556;-71
2021/03/09 10:54:37;;;;;;;;;17.00;16.00;;;;;;;;4964619;28;113484;-69
2021/03/09 10:57:03;;;;;;;;;14.67;12.00;;;;;;;;4957795;28;112973;-68
2021/03/09 10:59:29;;;;;;;;;14.00;14.00;;;;;;;;4964663;28;111943;-67
2021/03/09 11:01:55;;;;;;;;;14.00;12.00;;;;;;;;4962847;28;113524;-68
2021/03/09 11:04:21;;;;;;;;;15.00;10.67;;;;;;;;4960916;28;114141;-66
2021/03/09 11:06:47;;;;;;;;;12.00;11.33;;;;;;;;4958141;28;112107;-69
2021/03/09 11:09:13;;;;;;;;;14.00;12.67;;;;;;;;4965547;28;114088;-69
2021/03/09 11:11:40;;;;;;;;;13.67;12.67;;;;;;;;4965666;28;112945;-69
2021/03/09 11:14:06;;;;;;;;;13.33;13.00;;;;;;;;4967399;28;113581;-69
2021/03/09 11:16:32;;;;;;;;;14.25;11.50;;;;;;;;4963272;28;114075;-67
2021/03/09 11:19:02;;;;;;;;;11.50;11.25;;;;;;;;4961578;28;112167;-67
2021/03/09 11:21:28;;;;;;;;;13.00;12.00;;;;;;;;4957688;28;111912;-69
2021/03/09 11:23:54;;;;;;;;;14.50;14.25;;;;;;;;4965948;28;114154;-69
2021/03/09 11:26:21;;;;;;;;;17.00;15.50;;;;;;;;4961749;28;112039;-68
2021/03/09 11:28:48;;;;;;;;;14.25;11.00;;;;;;;;4969211;28;114062;-67
2021/03/09 11:31:14;;;;;;;;;13.00;12.00;;;;;;;;4959031;28;112103;-69
2021/03/09 11:33:40;;;;;;;;;15.75;13.00;;;;;;;;4958500;28;112852;-69
2021/03/09 11:36:07;;;;;;;;;11.75;11.00;;;;;;;;4966615;28;114054;-68
2021/03/09 11:38:33;;;;;;;;;12.50;11.75;;;;;;;;4962851;28;112009;-70
2021/03/09 11:40:59;;;;;;;;;12.50;9.25;;;;;;;;4964910;28;113473;-70
2021/03/09 11:43:25;;;;;;;;;15.00;13.50;;;;;;;;4963236;28;114190;-69
2021/03/09 11:45:52;;;;;;;;;14.50;12.75;;;;;;;;4964729;28;111937;-69
2021/03/09 11:48:18;;;;;;;;;15.25;13.00;;;;;;;;4961729;28;113661;-67
2021/03/09 11:50:44;;;;;;;;;13.25;12.75;;;;;;;;4965893;28;114097;-69
2021/03/09 11:53:10;;;;;;;;;16.25;12.50;;;;;;;;4962502;28;114294;-67
2021/03/09 11:55:36;;;;;;;;;14.75;13.00;;;;;;;;4963338;28;114184;-68
2021/03/09 11:58:02;;;;;;;;;15.00;13.50;;;;;;;;4962129;28;112099;-68
2021/03/09 12:00:28;;;;;;;;;15.25;14.00;;;;;;;;4957041;28;113315;-69
2021/03/09 12:02:55;;;;;;;;;14.50;13.25;;;;;;;;4955953;28;113111;-68
2021/03/09 12:05:21;;;;;;;;;14.25;13.00;;;;;;;;4964360;28;112257;-67
2021/03/09 18:25:01;;;;;;;;;24.00;20.33;;;;;;;;5083493;27;112925;-75
2021/03/09 18:27:27;;;;;;;;;20.33;19.00;;;;;;;;5064237;27;114665;-72
2021/03/09 18:29:53;;;;;;;;;23.00;22.33;;;;;;;;5061433;27;112169;-71
2021/03/09 18:32:19;;;;;;;;;20.75;19.00;;;;;;;;5061400;27;113641;-68
2021/03/09 18:34:45;;;;;;;;;21.50;20.25;;;;;;;;5069257;27;114028;-69
2021/03/09 18:37:11;;;;;;;;;22.00;16.00;;;;;;;;5063983;27;112019;-69
2021/03/09 18:39:37;;;;;;;;;20.25;17.00;;;;;;;;5060847;27;113239;-68
2021/03/09 18:42:04;;;;;;;;;22.00;22.00;;;;;;;;5059117;27;113980;-71
2021/03/09 18:44:30;;;;;;;;;24.00;18.50;;;;;;;;5067720;27;112225;-71
2021/03/09 18:46:58;;;;;;;;;20.00;15.50;;;;;;;;5060517;27;114097;-71
2021/03/09 18:49:24;;;;;;;;;15.00;15.00;;;;;;;;5062798;27;112689;-73
2021/03/09 18:51:50;;;;;;;;;23.00;21.33;;;;;;;;5062061;27;113500;-71
2021/03/09 18:54:16;;;;;;;;;20.75;20.25;;;;;;;;5061250;27;112656;-72
2021/03/09 18:56:42;;;;;;;;;19.75;17.25;;;;;;;;5063100;27;112428;-72
2021/03/09 18:59:09;;;;;;;;;17.25;17.00;;;;;;;;5063280;27;113395;-73
2021/03/09 19:01:35;;;;;;;;;21.75;18.75;;;;;;;;5060087;27;114610;-73
2021/03/09 19:04:01;;;;;;;;;19.25;18.50;;;;;;;;5063089;27;112385;-73
2021/03/09 19:06:27;;;;;;;;;20.00;18.25;;;;;;;;5067176;27;113739;-71
2021/03/09 19:08:53;;;;;;;;;20.00;19.00;;;;;;;;5061068;27;112126;-72
2021/03/09 19:11:19;;;;;;;;;21.50;20.75;;;;;;;;5061394;27;113395;-73
2021/03/09 19:13:45;;;;;;;;;21.50;20.00;;;;;;;;5061633;27;114477;-72
2021/03/09 19:16:12;;;;;;;;;19.75;17.25;;;;;;;;5059278;27;112308;-72
2021/03/09 19:18:38;;;;;;;;;19.00;18.75;;;;;;;;5062473;27;113458;-72
2021/03/09 19:21:04;;;;;;;;;19.75;15.50;;;;;;;;5059799;27;113809;-73
2021/03/09 19:23:30;;;;;;;;;22.00;19.25;;;;;;;;5064213;27;112035;-73
2021/03/09 19:25:56;;;;;;;;;22.25;19.50;;;;;;;;5064771;27;113404;-73
2021/03/09 19:28:23;;;;;;;;;22.25;19.00;;;;;;;;5064616;27;114675;-73
2021/03/09 19:30:49;;;;;;;;;19.00;17.00;;;;;;;;5061412;27;113355;-72
2021/03/09 19:33:16;;;;;;;;;16.50;16.00;;;;;;;;5062205;27;112718;-72
2021/03/09 19:35:45;;;;;;;;;18.00;18.00;;;;;;;;5050707;27;111928;-69
2021/03/09 19:38:11;;;;;;;;;21.25;17.25;;;;;;;;5048522;27;114035;-72
2021/03/09 19:40:37;;;;;;;;;15.00;14.00;;;;;;;;5045820;27;114647;-72
2021/03/09 19:43:03;;;;;;;;;21.50;16.00;;;;;;;;5049928;27;111905;-71
2021/03/09 19:45:29;;;;;;;;;19.50;16.25;;;;;;;;5045932;27;115685;-72
2021/03/09 19:47:55;;;;;;;;;20.75;16.00;;;;;;;;5047817;27;114159;-73
2021/03/09 19:50:23;;;;;;;;;17.75;16.25;;;;;;;;5057879;27;112887;-73
2021/03/09 19:52:49;;;;;;;;;15.00;15.00;;;;;;;;5046033;27;116295;-72
2021/03/09 19:55:16;;;;;;;;;15.25;13.75;;;;;;;;5047100;27;111887;-72
2021/03/09 19:57:42;;;;;;;;;18.75;17.75;;;;;;;;5049156;27;114323;-72
2021/03/09 20:00:10;;;;;;;;;16.75;15.00;;;;;;;;5047334;27;113947;-70
2021/03/09 20:02:38;;;;;;;;;19.00;17.00;;;;;;;;5045987;27;111916;-73
2021/03/09 20:05:04;;;;;;;;;16.25;16.25;;;;;;;;5047989;27;115041;-71
2021/03/09 20:07:31;;;;;;;;;20.00;14.00;;;;;;;;5045668;27;114664;-72
2021/03/09 20:09:58;;;;;;;;;17.00;16.00;;;;;;;;5047105;27;112284;-69
2021/03/09 20:12:24;;;;;;;;;16.50;16.50;;;;;;;;5054214;27;114462;-67
2021/03/09 20:14:51;;;;;;;;;17.67;14.67;;;;;;;;5045414;27;111935;-67
2021/03/09 20:17:17;;;;;;;;;19.67;19.00;;;;;;;;5046967;27;113409;-67
2021/03/09 20:19:45;;;;;;;;;14.33;14.33;;;;;;;;5041545;27;113064;-69
2021/03/09 20:22:11;;;;;;;;;16.00;15.50;;;;;;;;5047777;27;112195;-72
2021/03/09 20:24:38;;;;;;;;;20.00;19.00;;;;;;;;5043234;27;113541;-70
2021/03/09 20:27:04;;;;;;;;;15.00;14.50;;;;;;;;5042453;27;114177;-70
2021/03/09 20:29:30;;;;;;;;;19.00;18.33;;;;;;;;5052870;27;111896;-69
2021/03/09 20:31:58;;;;;;;;;19.50;19.25;;;;;;;;5049100;27;113353;-68
2021/03/09 20:34:24;;;;;;;;;20.00;18.50;;;;;;;;5055487;27;113007;-70